WAT1341 KBHM-KDAY
Flight info
| Callsign | WAT1341 |
|---|---|
| Flight time | 1h 3m |
| Altitude | 41000 |
| Route | RHETT BNA IIU CVG HICKS FIITZ |
| Aircraft | CL60/M-SADE3FGHIJ3J4J7P2RWXY/HB1D1 |
Departure
| Time | 2026-05-09 00:50 |
|---|---|
| Airport | Birmingham-Shuttlesworth International Airport (KBHM) |
Arrival
| Time | 2026-05-09 01:53 |
|---|---|
| Airport | James M. Cox Dayton International Airport (KDAY) |
| Time | Latitude | Longitude | Altitude | Speed | Heading |
|---|---|---|---|---|---|
| 2026-05-09 00:15 | 33.55667 | -86.77326 | 608 ft | 0 kts | 57° |
| 2026-05-09 00:40 | 33.55667 | -86.77325 | 608 ft | 0 kts | 57° |
| 2026-05-09 00:40 | 33.55669 | -86.77321 | 608 ft | 0 kts | 69° |
| 2026-05-09 00:41 | 33.55670 | -86.77316 | 608 ft | 3 kts | 73° |
| 2026-05-09 00:42 | 33.55685 | -86.77268 | 608 ft | 8 kts | 64° |
| 2026-05-09 00:42 | 33.55675 | -86.77206 | 609 ft | 9 kts | 154° |
| 2026-05-09 00:42 | 33.55618 | -86.77241 | 608 ft | 10 kts | 185° |
| 2026-05-09 00:42 | 33.55544 | -86.77191 | 607 ft | 13 kts | 143° |
| 2026-05-09 00:43 | 33.55457 | -86.77121 | 607 ft | 15 kts | 144° |
| 2026-05-09 00:43 | 33.55437 | -86.77027 | 607 ft | 13 kts | 59° |
| 2026-05-09 00:43 | 33.55495 | -86.76926 | 608 ft | 15 kts | 57° |
| 2026-05-09 00:43 | 33.55560 | -86.76813 | 609 ft | 17 kts | 54° |
| 2026-05-09 00:44 | 33.55633 | -86.76688 | 610 ft | 19 kts | 56° |
| 2026-05-09 00:44 | 33.55710 | -86.76555 | 611 ft | 20 kts | 55° |
| 2026-05-09 00:44 | 33.55793 | -86.76409 | 612 ft | 22 kts | 56° |
| 2026-05-09 00:44 | 33.55884 | -86.76251 | 613 ft | 23 kts | 55° |
| 2026-05-09 00:45 | 33.55980 | -86.76083 | 613 ft | 25 kts | 55° |
| 2026-05-09 00:45 | 33.56082 | -86.75907 | 615 ft | 25 kts | 56° |
| 2026-05-09 00:45 | 33.56179 | -86.75739 | 616 ft | 22 kts | 55° |
| 2026-05-09 00:45 | 33.56269 | -86.75581 | 619 ft | 23 kts | 56° |
| 2026-05-09 00:46 | 33.56363 | -86.75420 | 621 ft | 23 kts | 54° |
| 2026-05-09 00:46 | 33.56451 | -86.75265 | 625 ft | 21 kts | 54° |
| 2026-05-09 00:46 | 33.56534 | -86.75121 | 628 ft | 20 kts | 55° |
| 2026-05-09 00:46 | 33.56595 | -86.75008 | 631 ft | 16 kts | 71° |
| 2026-05-09 00:47 | 33.56607 | -86.74869 | 632 ft | 17 kts | 77° |
| 2026-05-09 00:47 | 33.56670 | -86.74739 | 634 ft | 18 kts | 56° |
| 2026-05-09 00:47 | 33.56744 | -86.74610 | 637 ft | 19 kts | 55° |
| 2026-05-09 00:47 | 33.56824 | -86.74475 | 640 ft | 19 kts | 54° |
| 2026-05-09 00:48 | 33.56903 | -86.74338 | 643 ft | 20 kts | 56° |
| 2026-05-09 00:48 | 33.56983 | -86.74197 | 647 ft | 20 kts | 55° |
| 2026-05-09 00:48 | 33.57062 | -86.74059 | 652 ft | 19 kts | 56° |
| 2026-05-09 00:48 | 33.57138 | -86.73928 | 656 ft | 19 kts | 55° |
| 2026-05-09 00:49 | 33.57209 | -86.73836 | 660 ft | 12 kts | 14° |
| 2026-05-09 00:49 | 33.57278 | -86.73870 | 663 ft | 11 kts | 322° |
| 2026-05-09 00:49 | 33.57326 | -86.73937 | 663 ft | 8 kts | 260° |
| 2026-05-09 00:49 | 33.57261 | -86.74062 | 657 ft | 47 kts | 236° |
| 2026-05-09 00:50 | 33.56866 | -86.74744 | 642 ft | 146 kts | 235° |
| 2026-05-09 00:50 | 33.56251 | -86.75912 | 1171 ft | 180 kts | 236° |
| 2026-05-09 00:50 | 33.55806 | -86.77376 | 2086 ft | 207 kts | 265° |
| 2026-05-09 00:50 | 33.56086 | -86.79162 | 3054 ft | 231 kts | 284° |
| 2026-05-09 00:51 | 33.56602 | -86.80999 | 3686 ft | 236 kts | 285° |
| 2026-05-09 00:51 | 33.57152 | -86.82837 | 3942 ft | 234 kts | 286° |
| 2026-05-09 00:51 | 33.57700 | -86.84665 | 4002 ft | 232 kts | 286° |
| 2026-05-09 00:51 | 33.58244 | -86.86498 | 4002 ft | 230 kts | 286° |
| 2026-05-09 00:52 | 33.58783 | -86.88304 | 4017 ft | 239 kts | 286° |
| 2026-05-09 00:52 | 33.59380 | -86.90255 | 4991 ft | 256 kts | 290° |
| 2026-05-09 00:52 | 33.60273 | -86.91906 | 6851 ft | 242 kts | 308° |
| 2026-05-09 00:52 | 33.61582 | -86.93207 | 7981 ft | 259 kts | 325° |
| 2026-05-09 00:53 | 33.63331 | -86.93938 | 8965 ft | 283 kts | 349° |
| 2026-05-09 00:53 | 33.65302 | -86.93611 | 10106 ft | 301 kts | 19° |
| 2026-05-09 00:53 | 33.67215 | -86.92464 | 10894 ft | 324 kts | 24° |
| 2026-05-09 00:53 | 33.69338 | -86.91126 | 11325 ft | 356 kts | 24° |
| 2026-05-09 00:54 | 33.71574 | -86.89715 | 12075 ft | 373 kts | 24° |
| 2026-05-09 00:54 | 33.73885 | -86.88255 | 13017 ft | 381 kts | 23° |
| 2026-05-09 00:54 | 33.76247 | -86.86762 | 14032 ft | 386 kts | 23° |
| 2026-05-09 00:54 | 33.78628 | -86.85259 | 15036 ft | 391 kts | 22° |
| 2026-05-09 00:55 | 33.81030 | -86.83742 | 16002 ft | 394 kts | 22° |
| 2026-05-09 00:55 | 33.83460 | -86.82209 | 16926 ft | 398 kts | 21° |
| 2026-05-09 00:55 | 33.85952 | -86.80637 | 17856 ft | 402 kts | 21° |
| 2026-05-09 00:55 | 33.88422 | -86.79079 | 18652 ft | 407 kts | 21° |
| 2026-05-09 00:56 | 33.90942 | -86.77492 | 19322 ft | 415 kts | 20° |
| 2026-05-09 00:56 | 33.93530 | -86.75861 | 19933 ft | 423 kts | 20° |
| 2026-05-09 00:56 | 33.96186 | -86.74186 | 20542 ft | 431 kts | 20° |
| 2026-05-09 00:56 | 33.98826 | -86.72519 | 21222 ft | 435 kts | 19° |
| 2026-05-09 00:57 | 34.01543 | -86.70804 | 21772 ft | 443 kts | 19° |
| 2026-05-09 00:57 | 34.04346 | -86.69069 | 22322 ft | 447 kts | 15° |
| 2026-05-09 00:57 | 34.07272 | -86.67973 | 22914 ft | 430 kts | 358° |
| 2026-05-09 00:57 | 34.10184 | -86.67753 | 23492 ft | 423 kts | 349° |
| 2026-05-09 00:58 | 34.13199 | -86.67772 | 24071 ft | 427 kts | 348° |
| 2026-05-09 00:58 | 34.16224 | -86.67789 | 24475 ft | 436 kts | 349° |
| 2026-05-09 00:58 | 34.19257 | -86.67799 | 25084 ft | 439 kts | 348° |
| 2026-05-09 00:58 | 34.22328 | -86.67813 | 25398 ft | 448 kts | 348° |
| 2026-05-09 00:59 | 34.25491 | -86.67826 | 25820 ft | 453 kts | 348° |
| 2026-05-09 00:59 | 34.28681 | -86.67838 | 26281 ft | 457 kts | 348° |
| 2026-05-09 00:59 | 34.31861 | -86.67850 | 26676 ft | 463 kts | 348° |
| 2026-05-09 00:59 | 34.35117 | -86.67860 | 27156 ft | 466 kts | 348° |
| 2026-05-09 01:00 | 34.38388 | -86.67871 | 27548 ft | 471 kts | 348° |
| 2026-05-09 01:00 | 34.41717 | -86.67883 | 27932 ft | 476 kts | 347° |
| 2026-05-09 01:00 | 34.45045 | -86.67896 | 28277 ft | 480 kts | 347° |
| 2026-05-09 01:00 | 34.48443 | -86.67905 | 28695 ft | 483 kts | 347° |
| 2026-05-09 01:01 | 34.51852 | -86.67918 | 28953 ft | 489 kts | 347° |
| 2026-05-09 01:01 | 34.55255 | -86.67928 | 29371 ft | 490 kts | 347° |
| 2026-05-09 01:01 | 34.58704 | -86.67937 | 29766 ft | 492 kts | 347° |
| 2026-05-09 01:01 | 34.62158 | -86.67946 | 30243 ft | 492 kts | 347° |
| 2026-05-09 01:02 | 34.65588 | -86.67955 | 30639 ft | 493 kts | 347° |
| 2026-05-09 01:02 | 34.69000 | -86.67962 | 31227 ft | 489 kts | 347° |
| 2026-05-09 01:02 | 34.72449 | -86.67969 | 31692 ft | 489 kts | 346° |
| 2026-05-09 01:02 | 34.75872 | -86.67979 | 32196 ft | 487 kts | 346° |
| 2026-05-09 01:03 | 34.79252 | -86.67986 | 32744 ft | 484 kts | 346° |
| 2026-05-09 01:03 | 34.82659 | -86.67996 | 33174 ft | 483 kts | 346° |
| 2026-05-09 01:03 | 34.86048 | -86.68007 | 33621 ft | 482 kts | 345° |
| 2026-05-09 01:03 | 34.89420 | -86.68015 | 34162 ft | 479 kts | 345° |
| 2026-05-09 01:04 | 34.92750 | -86.68027 | 34508 ft | 480 kts | 345° |
| 2026-05-09 01:04 | 34.96089 | -86.68034 | 35131 ft | 474 kts | 345° |
| 2026-05-09 01:04 | 34.99394 | -86.68040 | 35689 ft | 469 kts | 345° |
| 2026-05-09 01:04 | 35.02613 | -86.68048 | 36196 ft | 465 kts | 345° |
| 2026-05-09 01:05 | 35.05828 | -86.68057 | 36697 ft | 460 kts | 344° |
| 2026-05-09 01:05 | 35.09037 | -86.68068 | 37025 ft | 460 kts | 344° |
| 2026-05-09 01:05 | 35.15517 | -86.68095 | 37625 ft | 459 kts | 344° |
| 2026-05-09 01:06 | 35.18675 | -86.68105 | 37961 ft | 457 kts | 344° |
| 2026-05-09 01:06 | 35.21861 | -86.68116 | 38247 ft | 456 kts | 344° |
| 2026-05-09 01:06 | 35.25056 | -86.68128 | 38486 ft | 456 kts | 344° |
| 2026-05-09 01:06 | 35.28202 | -86.68140 | 38736 ft | 455 kts | 344° |
| 2026-05-09 01:07 | 35.31357 | -86.68151 | 39019 ft | 454 kts | 344° |
| 2026-05-09 01:07 | 35.34509 | -86.68162 | 39262 ft | 453 kts | 344° |
| 2026-05-09 01:07 | 35.37647 | -86.68173 | 39509 ft | 452 kts | 343° |
| 2026-05-09 01:07 | 35.40817 | -86.68185 | 39753 ft | 450 kts | 344° |
| 2026-05-09 01:08 | 35.43953 | -86.68197 | 39922 ft | 451 kts | 344° |
| 2026-05-09 01:08 | 35.47086 | -86.68211 | 40048 ft | 452 kts | 344° |
| 2026-05-09 01:08 | 35.50250 | -86.68221 | 40231 ft | 452 kts | 344° |
| 2026-05-09 01:08 | 35.53365 | -86.68233 | 40412 ft | 451 kts | 344° |
| 2026-05-09 01:09 | 35.56509 | -86.68244 | 40547 ft | 452 kts | 344° |
| 2026-05-09 01:09 | 35.59666 | -86.68256 | 40744 ft | 450 kts | 345° |
| 2026-05-09 01:09 | 35.62791 | -86.68265 | 40936 ft | 449 kts | 344° |
| 2026-05-09 01:10 | 35.69080 | -86.68293 | 40959 ft | 454 kts | 344° |
| 2026-05-09 01:10 | 35.75414 | -86.68319 | 40966 ft | 458 kts | 345° |
| 2026-05-09 01:11 | 35.81812 | -86.68344 | 40973 ft | 461 kts | 345° |
| 2026-05-09 01:11 | 35.88222 | -86.68367 | 40966 ft | 464 kts | 345° |
| 2026-05-09 01:12 | 35.94711 | -86.68389 | 40954 ft | 465 kts | 345° |
| 2026-05-09 01:12 | 36.01197 | -86.68411 | 40955 ft | 467 kts | 345° |
| 2026-05-09 01:13 | 36.07691 | -86.68402 | 40953 ft | 471 kts | 348° |
| 2026-05-09 01:13 | 36.14369 | -86.67342 | 40954 ft | 492 kts | 0° |
| 2026-05-09 01:13 | 36.17735 | -86.66135 | 40953 ft | 504 kts | 7° |
| 2026-05-09 01:14 | 36.21016 | -86.64477 | 40952 ft | 513 kts | 12° |
| 2026-05-09 01:14 | 36.27529 | -86.60883 | 40962 ft | 515 kts | 12° |
| 2026-05-09 01:15 | 36.34112 | -86.57252 | 40967 ft | 516 kts | 12° |
| 2026-05-09 01:15 | 36.40676 | -86.53625 | 40973 ft | 515 kts | 11° |
| 2026-05-09 01:16 | 36.47213 | -86.50009 | 40968 ft | 514 kts | 12° |
| 2026-05-09 01:16 | 36.53745 | -86.46391 | 40953 ft | 513 kts | 12° |
| 2026-05-09 01:17 | 36.63561 | -86.40946 | 40930 ft | 514 kts | 12° |
| 2026-05-09 01:17 | 36.70089 | -86.37318 | 40926 ft | 514 kts | 12° |
| 2026-05-09 01:18 | 36.76597 | -86.33692 | 40930 ft | 513 kts | 12° |
| 2026-05-09 01:18 | 36.83108 | -86.30058 | 40933 ft | 513 kts | 13° |
| 2026-05-09 01:19 | 36.89630 | -86.26414 | 40935 ft | 513 kts | 12° |
| 2026-05-09 01:19 | 36.96151 | -86.22764 | 40937 ft | 514 kts | 12° |
| 2026-05-09 01:20 | 37.02657 | -86.19115 | 40926 ft | 515 kts | 13° |
| 2026-05-09 01:20 | 37.09177 | -86.15450 | 40965 ft | 515 kts | 13° |
| 2026-05-09 01:21 | 37.15704 | -86.11774 | 40949 ft | 513 kts | 13° |
| 2026-05-09 01:21 | 37.22234 | -86.08091 | 40920 ft | 514 kts | 13° |
| 2026-05-09 01:22 | 37.28751 | -86.04408 | 40934 ft | 513 kts | 13° |
| 2026-05-09 01:22 | 37.35267 | -86.00718 | 40923 ft | 512 kts | 13° |
| 2026-05-09 01:23 | 37.41750 | -85.97041 | 40933 ft | 512 kts | 13° |
| 2026-05-09 01:23 | 37.48213 | -85.93367 | 40918 ft | 512 kts | 13° |
| 2026-05-09 01:24 | 37.54701 | -85.89655 | 40907 ft | 514 kts | 15° |
| 2026-05-09 01:24 | 37.61062 | -85.85342 | 40953 ft | 518 kts | 18° |
| 2026-05-09 01:25 | 37.67347 | -85.80995 | 40821 ft | 518 kts | 18° |
| 2026-05-09 01:25 | 37.70486 | -85.78825 | 40960 ft | 516 kts | 18° |
| 2026-05-09 01:25 | 37.73650 | -85.76636 | 40919 ft | 517 kts | 18° |
| 2026-05-09 01:26 | 37.79966 | -85.72264 | 40783 ft | 521 kts | 18° |
| 2026-05-09 01:26 | 37.83138 | -85.70060 | 41043 ft | 518 kts | 18° |
| 2026-05-09 01:26 | 37.86314 | -85.67863 | 40727 ft | 522 kts | 18° |
| 2026-05-09 01:27 | 37.89454 | -85.65678 | 40927 ft | 515 kts | 18° |
| 2026-05-09 01:27 | 37.92599 | -85.63494 | 40911 ft | 518 kts | 18° |
| 2026-05-09 01:27 | 37.98921 | -85.59099 | 40944 ft | 517 kts | 18° |
| 2026-05-09 01:28 | 38.05217 | -85.54717 | 40930 ft | 518 kts | 18° |
| 2026-05-09 01:28 | 38.11577 | -85.50280 | 40917 ft | 518 kts | 18° |
| 2026-05-09 01:29 | 38.17942 | -85.45830 | 40924 ft | 517 kts | 18° |
| 2026-05-09 01:29 | 38.24231 | -85.41425 | 40911 ft | 516 kts | 18° |
| 2026-05-09 01:30 | 38.30550 | -85.36992 | 40921 ft | 516 kts | 18° |
| 2026-05-09 01:30 | 38.36862 | -85.32555 | 40912 ft | 516 kts | 18° |
| 2026-05-09 01:31 | 38.43180 | -85.28104 | 40897 ft | 515 kts | 19° |
| 2026-05-09 01:31 | 38.46310 | -85.25898 | 40691 ft | 519 kts | 18° |
| 2026-05-09 01:31 | 38.49504 | -85.23646 | 40155 ft | 519 kts | 19° |
| 2026-05-09 01:32 | 38.52627 | -85.21433 | 39670 ft | 514 kts | 18° |
| 2026-05-09 01:32 | 38.55759 | -85.19215 | 39185 ft | 512 kts | 19° |
| 2026-05-09 01:32 | 38.58883 | -85.17001 | 38683 ft | 510 kts | 18° |
| 2026-05-09 01:32 | 38.62002 | -85.14789 | 38197 ft | 510 kts | 18° |
| 2026-05-09 01:33 | 38.65111 | -85.12582 | 37707 ft | 508 kts | 18° |
| 2026-05-09 01:33 | 38.68174 | -85.10407 | 37145 ft | 507 kts | 18° |
| 2026-05-09 01:33 | 38.71245 | -85.08222 | 36662 ft | 506 kts | 18° |
| 2026-05-09 01:33 | 38.74353 | -85.06010 | 36122 ft | 506 kts | 19° |
| 2026-05-09 01:34 | 38.77399 | -85.03841 | 35616 ft | 507 kts | 18° |
| 2026-05-09 01:34 | 38.80478 | -85.01648 | 35105 ft | 509 kts | 19° |
| 2026-05-09 01:34 | 38.83577 | -84.99438 | 34577 ft | 510 kts | 19° |
| 2026-05-09 01:34 | 38.86694 | -84.97210 | 33999 ft | 508 kts | 19° |
| 2026-05-09 01:35 | 38.89772 | -84.95007 | 33448 ft | 507 kts | 19° |
| 2026-05-09 01:35 | 38.92843 | -84.92806 | 32908 ft | 506 kts | 20° |
| 2026-05-09 01:35 | 38.95885 | -84.90625 | 32366 ft | 504 kts | 20° |
| 2026-05-09 01:35 | 38.98964 | -84.88416 | 31830 ft | 503 kts | 20° |
| 2026-05-09 01:36 | 39.01989 | -84.86243 | 31256 ft | 500 kts | 21° |
| 2026-05-09 01:36 | 39.05019 | -84.84063 | 30707 ft | 497 kts | 21° |
| 2026-05-09 01:36 | 39.08008 | -84.81911 | 30164 ft | 496 kts | 21° |
| 2026-05-09 01:36 | 39.11015 | -84.79745 | 29526 ft | 494 kts | 21° |
| 2026-05-09 01:37 | 39.14007 | -84.77588 | 28878 ft | 492 kts | 22° |
| 2026-05-09 01:37 | 39.17000 | -84.75427 | 28251 ft | 487 kts | 22° |
| 2026-05-09 01:37 | 39.19935 | -84.73304 | 27644 ft | 482 kts | 22° |
| 2026-05-09 01:37 | 39.22820 | -84.71215 | 27026 ft | 476 kts | 22° |
| 2026-05-09 01:38 | 39.25706 | -84.69125 | 26378 ft | 470 kts | 22° |
| 2026-05-09 01:38 | 39.28525 | -84.67082 | 25782 ft | 465 kts | 22° |
| 2026-05-09 01:38 | 39.31342 | -84.65038 | 25152 ft | 460 kts | 22° |
| 2026-05-09 01:38 | 39.34103 | -84.63034 | 24540 ft | 456 kts | 22° |
| 2026-05-09 01:39 | 39.36851 | -84.61038 | 23907 ft | 452 kts | 22° |
| 2026-05-09 01:39 | 39.39561 | -84.59068 | 23295 ft | 448 kts | 23° |
| 2026-05-09 01:39 | 39.42260 | -84.57104 | 22668 ft | 443 kts | 23° |
| 2026-05-09 01:39 | 39.44934 | -84.55155 | 22054 ft | 438 kts | 23° |
| 2026-05-09 01:40 | 39.47574 | -84.53231 | 21422 ft | 434 kts | 23° |
| 2026-05-09 01:40 | 39.50178 | -84.51331 | 20805 ft | 429 kts | 23° |
| 2026-05-09 01:40 | 39.52758 | -84.49442 | 20176 ft | 425 kts | 24° |
| 2026-05-09 01:40 | 39.55107 | -84.47114 | 19572 ft | 429 kts | 40° |
| 2026-05-09 01:41 | 39.57127 | -84.44281 | 18931 ft | 427 kts | 43° |
| 2026-05-09 01:41 | 39.59096 | -84.41452 | 18295 ft | 423 kts | 43° |
| 2026-05-09 01:41 | 39.61064 | -84.38632 | 17657 ft | 418 kts | 43° |
| 2026-05-09 01:41 | 39.62977 | -84.35887 | 17045 ft | 412 kts | 43° |
| 2026-05-09 01:42 | 39.64878 | -84.33151 | 16405 ft | 407 kts | 44° |
| 2026-05-09 01:42 | 39.66764 | -84.30439 | 15782 ft | 403 kts | 44° |
| 2026-05-09 01:42 | 39.68636 | -84.27768 | 15157 ft | 399 kts | 44° |
| 2026-05-09 01:42 | 39.70497 | -84.25114 | 14522 ft | 394 kts | 45° |
| 2026-05-09 01:43 | 39.72321 | -84.22536 | 13865 ft | 389 kts | 43° |
| 2026-05-09 01:43 | 39.74136 | -84.19942 | 13235 ft | 383 kts | 44° |
| 2026-05-09 01:43 | 39.75886 | -84.17445 | 12571 ft | 372 kts | 44° |
| 2026-05-09 01:43 | 39.77595 | -84.14986 | 11931 ft | 359 kts | 44° |
| 2026-05-09 01:44 | 39.79227 | -84.12643 | 11322 ft | 347 kts | 44° |
| 2026-05-09 01:44 | 39.80810 | -84.10365 | 10704 ft | 338 kts | 44° |
| 2026-05-09 01:44 | 39.82383 | -84.08115 | 10140 ft | 328 kts | 43° |
| 2026-05-09 01:44 | 39.83879 | -84.05967 | 9688 ft | 317 kts | 44° |
| 2026-05-09 01:45 | 39.85336 | -84.03890 | 9228 ft | 308 kts | 44° |
| 2026-05-09 01:45 | 39.86765 | -84.01856 | 8754 ft | 304 kts | 43° |
| 2026-05-09 01:45 | 39.88209 | -83.99815 | 8252 ft | 304 kts | 43° |
| 2026-05-09 01:45 | 39.89652 | -83.97794 | 7733 ft | 304 kts | 43° |
| 2026-05-09 01:46 | 39.91077 | -83.95821 | 7215 ft | 303 kts | 43° |
| 2026-05-09 01:46 | 39.92524 | -83.93826 | 6689 ft | 301 kts | 43° |
| 2026-05-09 01:46 | 39.93963 | -83.91844 | 6157 ft | 300 kts | 43° |
| 2026-05-09 01:46 | 39.95515 | -83.90102 | 5636 ft | 291 kts | 24° |
| 2026-05-09 01:47 | 39.97378 | -83.89455 | 5124 ft | 272 kts | 352° |
| 2026-05-09 01:47 | 39.99126 | -83.90064 | 4630 ft | 252 kts | 326° |
| 2026-05-09 01:47 | 40.00623 | -83.91144 | 4189 ft | 245 kts | 323° |
| 2026-05-09 01:47 | 40.02020 | -83.92330 | 3748 ft | 233 kts | 308° |
| 2026-05-09 01:48 | 40.02739 | -83.94071 | 3329 ft | 209 kts | 275° |
| 2026-05-09 01:48 | 40.02625 | -83.95860 | 2899 ft | 196 kts | 253° |
| 2026-05-09 01:48 | 40.02105 | -83.97476 | 2559 ft | 192 kts | 242° |
| 2026-05-09 01:48 | 40.01403 | -83.98980 | 2482 ft | 196 kts | 237° |
| 2026-05-09 01:49 | 40.00634 | -84.00474 | 2485 ft | 198 kts | 237° |
| 2026-05-09 01:49 | 39.99859 | -84.01949 | 2488 ft | 199 kts | 236° |
| 2026-05-09 01:49 | 39.99075 | -84.03434 | 2490 ft | 199 kts | 236° |
| 2026-05-09 01:49 | 39.98301 | -84.04896 | 2498 ft | 185 kts | 236° |
| 2026-05-09 01:50 | 39.97602 | -84.06215 | 2500 ft | 173 kts | 236° |
| 2026-05-09 01:50 | 39.96932 | -84.07481 | 2491 ft | 170 kts | 237° |
| 2026-05-09 01:50 | 39.96257 | -84.08756 | 2489 ft | 170 kts | 237° |
| 2026-05-09 01:50 | 39.95587 | -84.10023 | 2490 ft | 170 kts | 237° |
| 2026-05-09 01:51 | 39.94918 | -84.11285 | 2489 ft | 169 kts | 237° |
| 2026-05-09 01:51 | 39.94245 | -84.12554 | 2375 ft | 170 kts | 236° |
| 2026-05-09 01:51 | 39.93612 | -84.13745 | 2173 ft | 147 kts | 236° |
| 2026-05-09 01:51 | 39.93089 | -84.14727 | 2024 ft | 125 kts | 236° |
| 2026-05-09 01:52 | 39.92596 | -84.15658 | 1839 ft | 122 kts | 237° |
| 2026-05-09 01:52 | 39.92118 | -84.16563 | 1690 ft | 121 kts | 237° |
| 2026-05-09 01:52 | 39.91638 | -84.17461 | 1547 ft | 123 kts | 237° |
| 2026-05-09 01:52 | 39.91152 | -84.18388 | 1396 ft | 125 kts | 238° |
| 2026-05-09 01:53 | 39.90656 | -84.19309 | 1194 ft | 124 kts | 237° |
| 2026-05-09 01:53 | 39.90160 | -84.20246 | 1036 ft | 126 kts | 237° |
| 2026-05-09 01:53 | 39.89719 | -84.21075 | 1007 ft | 79 kts | 234° |
| 2026-05-09 01:53 | 39.89590 | -84.21320 | 1008 ft | 8 kts | 238° |
| 2026-05-09 01:54 | 39.89547 | -84.21380 | 1008 ft | 10 kts | 193° |
| 2026-05-09 01:54 | 39.89479 | -84.21337 | 1008 ft | 12 kts | 145° |
| 2026-05-09 01:54 | 39.89418 | -84.21259 | 1008 ft | 8 kts | 114° |
| 2026-05-09 01:54 | 39.89413 | -84.21242 | 1008 ft | 0 kts | 105° |
| 2026-05-09 01:55 | 39.89411 | -84.21230 | 1008 ft | 8 kts | 97° |
| 2026-05-09 01:56 | 39.89433 | -84.21138 | 1007 ft | 12 kts | 18° |
| 2026-05-09 01:56 | 39.89524 | -84.21133 | 1007 ft | 10 kts | 359° |
| 2026-05-09 01:56 | 39.89537 | -84.21118 | 1007 ft | 3 kts | 70° |
| 2026-05-09 01:56 | 39.89555 | -84.21046 | 1007 ft | 11 kts | 59° |
| 2026-05-09 01:57 | 39.89608 | -84.20944 | 1007 ft | 15 kts | 56° |
| 2026-05-09 01:57 | 39.89677 | -84.20818 | 1006 ft | 18 kts | 55° |
| 2026-05-09 01:57 | 39.89757 | -84.20666 | 1005 ft | 21 kts | 55° |
| 2026-05-09 01:57 | 39.89841 | -84.20506 | 1005 ft | 17 kts | 55° |
| 2026-05-09 01:58 | 39.89909 | -84.20380 | 1004 ft | 17 kts | 56° |
| 2026-05-09 01:58 | 39.89944 | -84.20282 | 1004 ft | 10 kts | 81° |
| 2026-05-09 01:58 | 39.89948 | -84.20199 | 1003 ft | 7 kts | 91° |
| 2026-05-09 01:58 | 39.89935 | -84.20167 | 1003 ft | 4 kts | 148° |
| 2026-05-09 01:59 | 39.89898 | -84.20155 | 1003 ft | 5 kts | 143° |
| 2026-05-09 01:59 | 39.89899 | -84.20126 | 1003 ft | 3 kts | 40° |
| 2026-05-09 01:59 | 39.89919 | -84.20125 | 1003 ft | 1 kts | 317° |
| 2026-05-09 01:59 | 39.89920 | -84.20131 | 1003 ft | 0 kts | 275° |
| 2026-05-09 02:00 | 39.89920 | -84.20132 | 1003 ft | 0 kts | 269° |